首页
METAR-TAF:

METAR-TAF

机场 :

姆万扎, 坦桑尼亚

纬度: 02-28S, 经度: 032-55E, 海拔: 1139米

当前天气观测

该预报发布于30分钟前的05:00 UTC
静风
温度 20°C
湿度 88%
气压 1016 hPa
能见度10公里或以上
少量云层高于1800英尺
少量云层高于1900英尺, 积雨云.
多云层高于9000英尺

METAR: HTMW 080500Z 00000KT 9999 FEW018 FEW019CB BKN090 20/18 Q1016

时间: 08:30 (05:30 UTC)

预报

该预报发布于6小时和30分钟前的23:00 UTC
预报有效从08日的 00点(UTC)到 08日的 24点(UTC)
风速5节,风向北转西北
能见度10公里或以上
散云层高于1800英尺
少量云层高于1900英尺, 积雨云.
多云层高于8000英尺
雷暴, 雨
成为
从 08日的 12点(UTC)到 08日的 14点(UTC)
少量云层高于2200英尺
少量云层高于2300英尺, 积雨云.
成为
从 08日的 18点(UTC)到 08日的 20点(UTC)
风速5节,风向

TAF: HTMW 072300Z 0800/0824 33005KT 9999 TSRA SCT018 FEW019CB BKN080 BECMG 0812/0814 NSW FEW022 FEW023CB BECMG 0818/0820 18005KT

超过4000个机场的气象观测和天气预报(METAR&TAF报告)。

可查询的气象台以黄色和红色小点在地图上表示。

将鼠标移到小点上方,可查看气象台名称。

然后点击查看天气观测和预报。

如需切换地图:点击带黑十字的绿色按钮放大地图;点击带横线的绿色按钮缩小地图;或者点击绿色箭头查看邻近地区的地图。


METAR-TAF: